Time;durP1;ratioP1;P1;durP2;ratioP2;P2;SDS_P1;SDS_P2;PMS_P1;PMS_P2;Temp;Humidity;BMP_temperature;BMP_pressure;BME280_temperature;BME280_humidity;BME280_pressure;Samples;Min_cycle;Max_cycle;Signal;HPM_P1;HPM_P2
2023/04/30 00:00:18;;;;;;;13.90;12.70;;;;;;;11.53;100.00;98987.69;4125332;28;20199;-62
2023/04/30 00:02:20;;;;;;;14.90;13.60;;;;;;;11.60;100.00;98993.03;4129757;28;20213;-62
2023/04/30 00:04:21;;;;;;;13.57;12.48;;;;;;;11.48;100.00;98992.19;4126249;28;20206;-62
2023/04/30 00:06:23;;;;;;;14.45;13.15;;;;;;;11.47;100.00;98996.88;4122664;28;20268;-62
2023/04/30 00:08:29;;;;;;;13.25;12.15;;;;;;;11.45;100.00;98998.19;4123171;28;20237;-62
2023/04/30 00:10:30;;;;;;;14.75;13.55;;;;;;;11.32;100.00;98988.31;4126382;28;20210;-62
2023/04/30 00:12:32;;;;;;;15.02;13.82;;;;;;;11.26;100.00;98988.47;4125192;28;20213;-62
2023/04/30 00:14:33;;;;;;;14.57;13.43;;;;;;;11.36;100.00;98995.00;4124066;28;20558;-62
2023/04/30 00:16:35;;;;;;;15.50;14.05;;;;;;;11.27;100.00;98990.13;4108664;28;20214;-62
2023/04/30 00:18:37;;;;;;;14.30;12.98;;;;;;;11.39;100.00;98989.03;4123320;28;21225;-62
2023/04/30 00:20:39;;;;;;;14.93;13.65;;;;;;;11.37;100.00;98991.16;4124301;28;20297;-62
2023/04/30 00:22:40;;;;;;;14.95;13.73;;;;;;;11.42;100.00;98988.53;4123583;28;20265;-62
2023/04/30 00:24:42;;;;;;;14.93;13.73;;;;;;;11.46;100.00;98988.88;4104574;28;20214;-62
2023/04/30 00:26:43;;;;;;;13.85;12.75;;;;;;;11.47;100.00;98990.53;4124005;28;20210;-62
2023/04/30 00:28:45;;;;;;;16.05;14.57;;;;;;;11.19;100.00;98987.78;4127843;28;20253;-62
2023/04/30 00:30:47;;;;;;;14.13;13.05;;;;;;;11.30;100.00;98989.66;4124801;28;20214;-62
2023/04/30 00:32:48;;;;;;;13.63;12.50;;;;;;;11.33;100.00;98992.75;4124996;28;20229;-62
2023/04/30 00:34:50;;;;;;;13.57;12.23;;;;;;;11.21;100.00;98991.94;4123600;28;20210;-62
2023/04/30 00:36:51;;;;;;;13.93;12.60;;;;;;;11.21;100.00;98997.44;4125393;28;20596;-62
2023/04/30 00:38:53;;;;;;;12.50;11.40;;;;;;;11.40;100.00;98998.91;4123972;28;20222;-62
2023/04/30 00:40:55;;;;;;;12.00;11.00;;;;;;;11.36;100.00;98994.16;4124156;28;20206;-62
2023/04/30 00:42:56;;;;;;;11.55;10.65;;;;;;;11.40;100.00;98998.06;4122876;28;20202;-62
2023/04/30 00:44:58;;;;;;;10.95;10.05;;;;;;;11.42;100.00;98998.66;4124474;28;20210;-62
2023/04/30 00:46:59;;;;;;;10.25;9.38;;;;;;;11.39;100.00;98999.16;4123315;28;20213;-62
2023/04/30 00:49:03;;;;;;;11.00;10.20;;;;;;;11.42;100.00;98996.75;4123632;28;20685;-62
2023/04/30 00:51:05;;;;;;;12.05;9.75;;;;;;;11.54;100.00;99007.66;4123227;28;20289;-62
2023/04/30 00:53:07;;;;;;;13.80;9.93;;;;;;;11.42;100.00;98993.19;4122772;28;20277;-62
2023/04/30 00:55:10;;;;;;;10.07;9.27;;;;;;;11.41;100.00;98997.00;4122403;28;20199;-62
2023/04/30 00:57:12;;;;;;;9.95;9.15;;;;;;;11.36;100.00;99000.47;4121686;28;20213;-62
2023/04/30 00:59:14;;;;;;;10.68;9.57;;;;;;;11.39;100.00;98986.31;4121667;28;20233;-62
2023/04/30 01:01:16;;;;;;;10.05;9.25;;;;;;;11.43;100.00;98989.38;4124238;28;20218;-62
2023/04/30 01:03:19;;;;;;;10.95;9.25;;;;;;;11.41;100.00;98986.88;4122172;28;20632;-62
2023/04/30 01:05:21;;;;;;;10.55;9.75;;;;;;;11.40;100.00;98982.47;4122748;28;20309;-62
2023/04/30 01:07:27;;;;;;;10.10;9.40;;;;;;;11.34;100.00;98986.19;4122787;28;20625;-62
2023/04/30 01:09:29;;;;;;;11.98;11.07;;;;;;;11.37;100.00;98985.69;4105470;28;20243;-62
2023/04/30 01:11:56;;;;;;;9.63;8.93;;;;;;;11.36;100.00;98984.03;4123446;28;20202;-62
2023/04/30 01:14:11;;;;;;;9.50;8.73;;;;;;;11.35;100.00;98976.88;4122940;28;21011;-62
2023/04/30 01:16:23;;;;;;;11.20;10.30;;;;;;;11.36;100.00;98978.56;4122385;28;20198;-62
2023/04/30 01:18:28;;;;;;;9.88;8.98;;;;;;;11.31;100.00;98981.19;4109846;28;20717;-62
2023/04/30 01:20:31;;;;;;;9.30;8.63;;;;;;;11.35;100.00;98976.03;4101518;28;20202;-62
2023/04/30 01:22:41;;;;;;;9.90;9.20;;;;;;;11.30;100.00;98979.53;4128861;28;20214;-62
2023/04/30 01:24:49;;;;;;;10.98;10.07;;;;;;;11.35;100.00;98979.63;4129204;28;20550;-62
2023/04/30 01:27:28;;;;;;;10.30;9.55;;;;;;;11.32;100.00;98973.81;4103141;28;20230;-62
2023/04/30 01:29:31;;;;;;;11.18;10.10;;;;;;;11.29;100.00;98977.88;4089312;28;20732;-62
2023/04/30 01:31:33;;;;;;;11.90;11.00;;;;;;;11.27;100.00;98973.69;4126845;28;21559;-62
2023/04/30 01:33:34;;;;;;;11.30;10.35;;;;;;;11.29;100.00;98977.88;4122348;28;20302;-62
2023/04/30 01:35:58;;;;;;;11.73;10.82;;;;;;;11.24;100.00;98975.00;4124152;28;20253;-62
2023/04/30 01:38:21;;;;;;;11.45;10.55;;;;;;;11.25;100.00;98979.41;4104957;28;20330;-62
2023/04/30 01:40:28;;;;;;;18.00;11.05;;;;;;;11.23;100.00;98984.31;4123903;28;20210;-62
2023/04/30 01:42:46;;;;;;;12.15;11.05;;;;;;;11.19;100.00;98982.31;4106457;28;20226;-62
2023/04/30 01:44:57;;;;;;;10.45;9.57;;;;;;;11.19;100.00;98983.16;4106067;28;20710;-62
2023/04/30 01:47:08;;;;;;;9.85;9.05;;;;;;;11.17;100.00;98984.47;4105169;28;20918;-62
2023/04/30 01:49:36;;;;;;;11.40;9.40;;;;;;;11.25;100.00;98992.28;4122839;28;20225;-62
2023/04/30 01:51:41;;;;;;;9.65;8.77;;;;;;;11.26;100.00;98993.97;4108344;28;20234;-62
2023/04/30 01:53:45;;;;;;;10.30;9.50;;;;;;;11.22;100.00;98981.81;4122535;28;20250;-62
2023/04/30 01:55:54;;;;;;;10.55;9.73;;;;;;;11.25;100.00;98987.63;4121954;28;20697;-62
2023/04/30 01:57:58;;;;;;;9.48;8.77;;;;;;;11.20;100.00;98984.81;4106798;28;20810;-62
2023/04/30 02:00:00;;;;;;;8.77;8.18;;;;;;;11.18;100.00;98981.47;4122563;28;20210;-62
2023/04/30 02:02:02;;;;;;;10.30;8.57;;;;;;;11.20;100.00;98981.22;4109043;28;20207;-61
2023/04/30 02:04:03;;;;;;;8.65;8.05;;;;;;;11.17;100.00;98987.19;4122036;28;20300;-62
2023/04/30 02:06:05;;;;;;;9.70;9.00;;;;;;;11.16;100.00;98974.56;4120437;28;20257;-61
2023/04/30 02:08:07;;;;;;;10.30;9.52;;;;;;;11.15;100.00;98981.97;4105256;28;20277;-62
2023/04/30 02:10:11;;;;;;;9.85;7.75;;;;;;;11.16;100.00;98980.88;4121039;28;20217;-61
2023/04/30 02:12:12;;;;;;;8.07;7.45;;;;;;;11.16;100.00;98977.28;4105844;28;20565;-62
2023/04/30 02:14:14;;;;;;;8.75;8.07;;;;;;;11.03;100.00;98972.94;4123709;28;20293;-62
2023/04/30 02:16:15;;;;;;;10.13;9.35;;;;;;;11.12;100.00;98971.47;4122676;28;20194;-62
2023/04/30 02:18:17;;;;;;;8.43;7.75;;;;;;;11.11;100.00;98974.47;4120710;28;20226;-62
2023/04/30 02:20:19;;;;;;;8.48;7.88;;;;;;;11.10;100.00;98973.63;4121383;28;20673;-61
2023/04/30 02:22:20;;;;;;;8.90;8.20;;;;;;;11.11;100.00;98969.81;4121888;28;20210;-61
2023/04/30 02:24:22;;;;;;;9.82;9.07;;;;;;;11.11;100.00;98975.28;4120224;28;20206;-62
2023/04/30 02:26:23;;;;;;;8.13;7.53;;;;;;;11.22;100.00;98977.16;4104653;28;20229;-62
2023/04/30 02:28:24;;;;;;;9.40;8.70;;;;;;;11.14;100.00;98984.94;4121533;28;20693;-61
2023/04/30 02:30:26;;;;;;;9.38;8.68;;;;;;;11.19;100.00;98983.16;4121775;28;20206;-62
2023/04/30 02:32:28;;;;;;;10.55;9.55;;;;;;;11.21;100.00;98980.16;4121895;28;20202;-61
2023/04/30 02:34:30;;;;;;;9.57;8.88;;;;;;;11.15;100.00;98981.97;4121951;28;20313;-62
2023/04/30 02:36:35;;;;;;;9.98;9.18;;;;;;;11.09;100.00;98982.91;4104414;28;20222;-62
2023/04/30 02:38:36;;;;;;;10.93;10.13;;;;;;;11.07;100.00;98990.56;4104350;28;20230;-62
2023/04/30 02:40:40;;;;;;;9.45;8.75;;;;;;;11.05;100.00;98981.72;4120983;28;20214;-62
2023/04/30 02:42:41;;;;;;;10.32;9.52;;;;;;;11.05;100.00;98987.22;4107034;28;20203;-62
2023/04/30 02:44:43;;;;;;;11.52;10.52;;;;;;;11.03;100.00;98989.38;4122828;28;20240;-62
2023/04/30 02:46:45;;;;;;;10.05;9.15;;;;;;;11.03;100.00;98989.38;4101046;28;20227;-62
2023/04/30 02:48:46;;;;;;;9.65;8.90;;;;;;;11.07;100.00;98985.09;4121016;28;20598;-62
2023/04/30 02:50:48;;;;;;;10.65;9.77;;;;;;;11.04;100.00;98982.00;4121009;28;20313;-62
2023/04/30 02:52:49;;;;;;;10.82;10.02;;;;;;;11.03;100.00;98983.88;4121485;28;20574;-62
2023/04/30 02:54:51;;;;;;;9.77;8.98;;;;;;;11.06;100.00;98988.91;4121796;28;20240;-62
2023/04/30 02:56:52;;;;;;;10.85;10.05;;;;;;;11.02;100.00;98987.69;4103374;28;20198;-62
2023/04/30 02:58:54;;;;;;;11.52;10.68;;;;;;;11.03;100.00;98989.38;4122527;28;20253;-62
2023/04/30 03:00:56;;;;;;;13.95;12.95;;;;;;;10.73;100.00;98992.50;4124079;28;20198;-62
2023/04/30 03:02:57;;;;;;;14.65;13.52;;;;;;;10.85;100.00;98986.78;4108250;28;20330;-62
2023/04/30 03:04:59;;;;;;;14.02;12.93;;;;;;;10.87;100.00;98982.97;4125694;28;20233;-62
2023/04/30 03:07:02;;;;;;;15.45;14.30;;;;;;;10.87;100.00;98980.25;4122511;28;20236;-62
2023/04/30 03:09:03;;;;;;;16.58;14.98;;;;;;;10.83;100.00;98983.44;4123854;28;21204;-62
2023/04/30 03:11:05;;;;;;;16.20;14.90;;;;;;;10.88;100.00;98979.16;4123887;28;20213;-62
2023/04/30 03:13:06;;;;;;;16.48;15.07;;;;;;;10.92;100.00;98976.50;4127775;28;20210;-62
2023/04/30 03:15:08;;;;;;;16.67;15.48;;;;;;;10.92;100.00;98976.50;4128966;28;20594;-62
2023/04/30 03:17:10;;;;;;;16.50;15.30;;;;;;;10.88;100.00;98984.66;4126782;28;20202;-62
2023/04/30 03:19:11;;;;;;;17.92;16.48;;;;;;;10.82;100.00;98976.31;4129334;28;20284;-61
2023/04/30 03:21:13;;;;;;;17.15;15.75;;;;;;;10.82;100.00;98981.78;4121923;28;20304;-61
2023/04/30 03:23:15;;;;;;;19.63;18.00;;;;;;;10.73;100.00;98976.06;4127582;28;20575;-62
2023/04/30 03:25:16;;;;;;;19.10;17.13;;;;;;;10.77;100.00;98966.31;4128685;28;20198;-62
2023/04/30 03:27:18;;;;;;;18.40;17.00;;;;;;;10.79;100.00;98971.31;4128539;28;20689;-62
2023/04/30 03:29:19;;;;;;;18.23;16.98;;;;;;;10.72;100.00;98963.47;4128483;28;20276;-62
2023/04/30 03:31:21;;;;;;;18.80;16.92;;;;;;;10.54;100.00;98966.34;4131202;28;20198;-61
2023/04/30 03:33:22;;;;;;;18.80;17.10;;;;;;;10.70;100.00;98962.88;4130211;28;20228;-61
2023/04/30 03:35:24;;;;;;;18.25;16.80;;;;;;;10.58;100.00;98954.69;4129073;28;20198;-61
2023/04/30 03:37:26;;;;;;;18.80;17.48;;;;;;;10.72;100.00;98969.78;4128875;28;20233;-62
2023/04/30 03:39:27;;;;;;;19.15;17.42;;;;;;;10.63;100.00;98959.44;4130467;28;20226;-61
2023/04/30 03:41:29;;;;;;;18.38;17.05;;;;;;;10.63;100.00;98970.38;4123884;28;20245;-62
2023/04/30 03:43:30;;;;;;;19.27;17.75;;;;;;;10.63;100.00;98968.50;4090210;29;20594;-62
2023/04/30 03:45:32;;;;;;;19.40;18.10;;;;;;;10.62;100.00;98969.53;4124441;28;20292;-62
2023/04/30 03:47:35;;;;;;;20.92;19.27;;;;;;;10.67;100.00;98966.09;4127318;28;20230;-61
2023/04/30 03:49:37;;;;;;;19.52;17.92;;;;;;;10.54;100.00;98967.16;4125298;28;20225;-62
2023/04/30 03:51:40;;;;;;;20.98;19.42;;;;;;;10.55;100.00;98963.34;4125533;28;20280;-62
2023/04/30 03:53:42;;;;;;;20.75;19.35;;;;;;;10.56;100.00;98964.19;4102275;28;20294;-61
2023/04/30 03:55:44;;;;;;;20.58;18.98;;;;;;;10.61;100.00;98967.06;4123893;28;20198;-62
2023/04/30 03:57:45;;;;;;;20.88;18.73;;;;;;;10.57;100.00;98960.38;4103649;28;20206;-62
2023/04/30 03:59:47;;;;;;;20.08;18.48;;;;;;;10.62;100.00;98968.72;4124149;28;20226;-61
2023/04/30 04:01:49;;;;;;;20.38;18.70;;;;;;;10.68;100.00;98963.09;4122098;28;20211;-62
2023/04/30 04:03:51;;;;;;;19.77;18.20;;;;;;;10.67;100.00;98966.94;4091313;28;20239;-61
2023/04/30 04:05:53;;;;;;;20.50;19.00;;;;;;;10.58;100.00;98962.06;4123984;28;20638;-61
2023/04/30 04:07:54;;;;;;;20.42;18.95;;;;;;;10.54;100.00;98960.88;4124023;28;20751;-62
2023/04/30 04:09:56;;;;;;;20.17;18.58;;;;;;;10.48;100.00;98961.84;4124382;28;20198;-61
2023/04/30 04:11:57;;;;;;;19.77;17.83;;;;;;;10.48;100.00;98956.38;4107615;28;20293;-61
2023/04/30 04:13:59;;;;;;;20.52;18.70;;;;;;;10.59;100.00;98959.09;4124442;28;20205;-61
2023/04/30 04:16:01;;;;;;;21.55;19.63;;;;;;;10.60;100.00;98970.84;4120630;28;20643;-61
2023/04/30 04:18:03;;;;;;;20.08;18.60;;;;;;;10.59;100.00;98969.19;4104231;28;20273;-61
2023/04/30 04:20:06;;;;;;;19.30;17.90;;;;;;;10.56;100.00;98964.19;4106385;28;20234;-61
2023/04/30 04:22:07;;;;;;;20.67;18.90;;;;;;;10.52;100.00;98968.47;4124279;28;20206;-61
2023/04/30 04:24:09;;;;;;;21.77;19.67;;;;;;;10.55;100.00;98973.50;4121714;28;20207;-61
2023/04/30 04:26:11;;;;;;;20.00;18.38;;;;;;;10.48;100.00;98972.78;4125682;28;20202;-61
2023/04/30 04:28:13;;;;;;;22.52;20.58;;;;;;;10.43;100.00;98975.38;4123348;28;20227;-61
2023/04/30 04:30:14;;;;;;;18.35;17.05;;;;;;;10.59;100.00;98980.13;4123708;28;20210;-62
2023/04/30 04:32:16;;;;;;;22.45;20.10;;;;;;;10.42;100.00;98979.19;4124571;28;20245;-62
2023/04/30 04:34:18;;;;;;;22.52;20.83;;;;;;;10.42;100.00;98979.19;4123929;28;20209;-61
2023/04/30 04:36:20;;;;;;;19.10;17.77;;;;;;;10.51;100.00;98978.59;4124708;28;20210;-61
2023/04/30 04:38:21;;;;;;;22.70;20.70;;;;;;;10.46;100.00;98978.47;4122507;28;20238;-61
2023/04/30 04:40:23;;;;;;;21.45;19.80;;;;;;;10.56;100.00;98975.16;4123064;28;20206;-61
2023/04/30 04:42:25;;;;;;;22.35;20.02;;;;;;;10.61;100.00;98978.00;4127724;28;20301;-62
2023/04/30 04:44:27;;;;;;;21.40;19.80;;;;;;;10.47;100.00;98982.06;4122273;28;20223;-61
2023/04/30 04:46:30;;;;;;;22.42;20.77;;;;;;;10.43;100.00;98972.66;4106945;28;20233;-61
2023/04/30 04:48:32;;;;;;;21.48;19.88;;;;;;;10.49;100.00;98974.44;4107454;28;21194;-62
2023/04/30 04:50:33;;;;;;;19.38;17.88;;;;;;;10.38;100.00;98978.00;4124198;28;20293;-61
2023/04/30 04:52:35;;;;;;;21.27;19.58;;;;;;;10.46;100.00;98974.91;4127999;28;20612;-62
2023/04/30 04:54:36;;;;;;;22.30;20.33;;;;;;;10.49;100.00;98977.19;4124031;28;20218;-61
2023/04/30 04:56:38;;;;;;;21.98;20.35;;;;;;;10.47;100.00;98976.59;4123612;28;20216;-61
2023/04/30 04:58:40;;;;;;;20.85;19.05;;;;;;;10.54;100.00;98974.56;4104811;28;20614;-62
2023/04/30 05:00:43;;;;;;;22.05;20.25;;;;;;;10.54;100.00;98977.31;4121293;28;20225;-60
2023/04/30 05:02:44;;;;;;;21.20;19.52;;;;;;;10.44;100.00;98977.03;4108933;28;20202;-62
2023/04/30 05:04:49;;;;;;;22.02;20.35;;;;;;;10.44;100.00;98982.53;4123645;28;20245;-62
2023/04/30 05:06:50;;;;;;;21.92;20.33;;;;;;;10.50;100.00;98982.41;4124902;28;20228;-61
2023/04/30 05:08:52;;;;;;;21.60;20.02;;;;;;;10.40;100.00;98982.16;4124402;28;20226;-61
2023/04/30 05:10:53;;;;;;;22.35;20.67;;;;;;;10.44;100.00;98988.00;4124183;28;20214;-61
2023/04/30 05:12:55;;;;;;;22.42;20.23;;;;;;;10.44;100.00;98982.53;4124315;28;20210;-62
2023/04/30 05:14:56;;;;;;;21.92;19.83;;;;;;;10.44;100.00;98990.72;4123682;28;20212;-62
2023/04/30 05:16:58;;;;;;;21.17;19.48;;;;;;;10.47;100.00;98990.28;4126894;28;20214;-60
2023/04/30 05:19:00;;;;;;;20.55;18.70;;;;;;;10.45;100.00;98984.19;4105445;28;20226;-62
2023/04/30 05:21:03;;;;;;;22.88;21.05;;;;;;;10.52;100.00;98987.63;4120539;28;20714;-61
2023/04/30 05:23:04;;;;;;;22.38;20.48;;;;;;;10.54;100.00;98988.25;4123158;28;20221;-61
2023/04/30 05:25:06;;;;;;;21.10;19.08;;;;;;;10.62;100.00;98990.63;4122618;28;20216;-61
2023/04/30 05:27:08;;;;;;;19.90;18.20;;;;;;;10.55;100.00;98981.69;4121881;28;20233;-61
2023/04/30 05:29:11;;;;;;;19.85;18.25;;;;;;;10.74;100.00;98991.44;4123551;28;20229;-61
2023/04/30 05:31:12;;;;;;;20.40;18.52;;;;;;;10.72;100.00;98990.84;4122007;28;20309;-62
2023/04/30 05:33:14;;;;;;;19.30;17.58;;;;;;;10.63;100.00;98986.81;4125251;28;20237;-61
2023/04/30 05:35:16;;;;;;;20.15;18.55;;;;;;;10.63;100.00;98986.81;4125730;28;20289;-61
2023/04/30 05:37:19;;;;;;;19.10;17.50;;;;;;;10.72;100.00;98996.31;4111215;28;20202;-61
2023/04/30 05:39:21;;;;;;;20.20;18.73;;;;;;;10.71;100.00;98997.38;4126754;28;20316;-61
2023/04/30 05:41:22;;;;;;;19.48;17.95;;;;;;;10.81;100.00;98994.88;4127701;28;20229;-62
2023/04/30 05:43:24;;;;;;;18.73;17.42;;;;;;;10.71;100.00;98992.75;4125873;28;20213;-62
2023/04/30 05:45:25;;;;;;;17.73;16.33;;;;;;;10.76;100.00;98998.31;4125945;28;20218;-61
2023/04/30 05:47:27;;;;;;;19.17;17.77;;;;;;;10.82;100.00;98992.75;4124256;28;20230;-61
2023/04/30 05:49:28;;;;;;;20.98;19.25;;;;;;;10.91;100.00;98991.28;4120850;28;20229;-61
2023/04/30 05:51:31;;;;;;;19.40;17.98;;;;;;;10.78;100.00;98997.00;4122012;28;20210;-61
2023/04/30 05:53:33;;;;;;;18.02;16.63;;;;;;;10.98;100.00;98997.47;4122475;28;20232;-61
2023/04/30 05:55:35;;;;;;;17.55;16.08;;;;;;;10.99;100.00;98987.34;4122762;28;20210;-61
2023/04/30 05:57:36;;;;;;;18.38;16.52;;;;;;;11.13;100.00;98989.59;4121223;28;20217;-62
2023/04/30 05:59:38;;;;;;;17.30;16.00;;;;;;;11.29;100.00;98988.81;4121539;28;20221;-62
2023/04/30 06:01:40;;;;;;;19.00;17.60;;;;;;;11.06;100.00;98988.06;4121407;28;20237;-61
2023/04/30 06:03:42;;;;;;;18.42;16.90;;;;;;;11.12;100.00;98985.16;4106178;28;20214;-61
2023/04/30 06:05:44;;;;;;;17.58;16.20;;;;;;;11.08;100.00;98986.75;4120639;28;20216;-62
2023/04/30 06:07:45;;;;;;;18.70;16.77;;;;;;;11.17;100.00;98993.50;4122689;28;20248;-61
2023/04/30 06:09:47;;;;;;;20.95;18.77;;;;;;;10.98;100.00;98997.47;4122773;28;20234;-61
2023/04/30 06:11:52;;;;;;;17.55;16.27;;;;;;;10.99;100.00;98988.19;4121453;28;20213;-61
2023/04/30 06:13:53;;;;;;;17.50;16.10;;;;;;;11.04;100.00;98996.50;4102092;28;20203;-61
2023/04/30 06:15:55;;;;;;;18.83;17.15;;;;;;;11.09;100.00;98999.34;4120379;28;20202;-61
2023/04/30 06:17:57;;;;;;;16.60;15.30;;;;;;;11.23;100.00;98987.06;4105538;28;20222;-61
2023/04/30 06:20:05;;;;;;;20.90;16.77;;;;;;;11.26;100.00;98988.47;4122652;28;20330;-61
2023/04/30 06:22:07;;;;;;;17.75;16.17;;;;;;;11.17;100.00;98985.28;4121590;28;20222;-61
2023/04/30 06:24:08;;;;;;;15.93;14.80;;;;;;;11.38;100.00;98987.34;4105867;28;20215;-62
2023/04/30 06:26:13;;;;;;;16.48;14.88;;;;;;;11.31;100.00;98992.13;4107784;28;20210;-62
2023/04/30 06:28:15;;;;;;;16.40;15.13;;;;;;;11.41;100.00;98992.34;4104930;28;20258;-61
2023/04/30 06:30:16;;;;;;;16.42;15.23;;;;;;;11.40;100.00;98990.69;4121014;28;20225;-62
2023/04/30 06:32:18;;;;;;;17.67;16.23;;;;;;;11.47;100.00;98985.91;4119141;28;20230;-62
2023/04/30 06:34:20;;;;;;;16.15;14.95;;;;;;;11.53;100.00;98989.56;4119475;28;20625;-62
2023/04/30 06:36:21;;;;;;;15.73;14.43;;;;;;;11.69;100.00;98981.41;4120992;28;20299;-62
2023/04/30 06:38:22;;;;;;;15.00;13.90;;;;;;;11.73;99.62;98984.50;4102824;28;20257;-61
2023/04/30 06:40:24;;;;;;;14.85;13.45;;;;;;;11.67;98.95;98986.31;4123156;28;20210;-62
2023/04/30 06:42:26;;;;;;;14.32;13.20;;;;;;;11.75;99.51;98983.19;4121823;28;20199;-62
2023/04/30 06:44:27;;;;;;;15.40;14.27;;;;;;;11.85;98.48;98988.84;4120410;28;20208;-62
2023/04/30 06:46:29;;;;;;;15.70;14.57;;;;;;;11.86;98.36;98995.16;4120837;28;20210;-61
2023/04/30 06:48:30;;;;;;;13.63;12.38;;;;;;;11.93;99.07;98995.84;4121362;28;20233;-61
2023/04/30 06:50:32;;;;;;;13.70;12.60;;;;;;;11.87;97.95;98992.19;4105040;28;20622;-61
2023/04/30 06:52:33;;;;;;;13.93;12.70;;;;;;;11.97;97.99;98992.34;4120801;28;20669;-62
2023/04/30 06:54:35;;;;;;;14.63;13.38;;;;;;;12.03;97.50;98996.84;4120576;28;20210;-62
2023/04/30 06:56:36;;;;;;;13.05;11.95;;;;;;;12.19;96.92;98990.56;4127344;28;20280;-61
2023/04/30 06:58:38;;;;;;;12.90;11.68;;;;;;;12.28;96.27;99000.03;4126526;28;20230;-61
2023/04/30 07:00:40;;;;;;;14.20;13.20;;;;;;;12.24;96.30;98993.38;4110198;28;20203;-61
2023/04/30 07:02:41;;;;;;;13.85;12.75;;;;;;;12.42;95.59;98989.53;4110240;28;20214;-61
2023/04/30 07:04:43;;;;;;;12.55;11.73;;;;;;;12.24;94.83;98987.06;4124405;28;20877;-67
2023/04/30 07:06:53;;;;;;;14.63;13.18;;;;;;;12.54;95.76;98993.88;4125474;28;20264;-68
2023/04/30 07:08:56;;;;;;;14.32;13.23;;;;;;;12.93;95.36;98997.47;4102211;28;20226;-68
2023/04/30 07:10:58;;;;;;;11.35;10.55;;;;;;;13.20;94.09;98984.69;4121623;28;20213;-67
2023/04/30 07:12:59;;;;;;;13.32;12.05;;;;;;;13.06;91.88;98986.16;4120981;28;20206;-68
2023/04/30 07:15:02;;;;;;;12.18;11.02;;;;;;;13.04;91.33;98988.31;4120854;28;20210;-67
2023/04/30 07:17:03;;;;;;;12.95;11.85;;;;;;;13.16;90.98;98981.63;4120485;28;20728;-67
2023/04/30 07:19:05;;;;;;;11.02;10.13;;;;;;;13.49;92.02;98989.72;4117834;28;20234;-68
2023/04/30 07:21:07;;;;;;;12.50;10.70;;;;;;;13.74;89.80;98979.00;4121325;28;20658;-68
2023/04/30 07:23:09;;;;;;;10.55;9.75;;;;;;;14.14;87.77;98984.91;4120995;28;20297;-68
2023/04/30 07:25:11;;;;;;;11.35;10.35;;;;;;;14.04;86.47;98978.50;4106820;28;20239;-67
2023/04/30 07:27:13;;;;;;;10.45;9.75;;;;;;;13.96;85.94;98978.97;4105782;28;20214;-68
2023/04/30 07:29:15;;;;;;;10.48;9.73;;;;;;;13.94;86.57;98979.22;4120760;28;20318;-68
2023/04/30 07:31:16;;;;;;;11.98;10.98;;;;;;;13.82;87.03;98986.78;4104772;28;20203;-68
2023/04/30 07:33:18;;;;;;;10.45;9.65;;;;;;;13.68;87.11;98995.72;4105943;28;20206;-67
2023/04/30 07:35:19;;;;;;;9.88;9.18;;;;;;;13.26;88.55;98989.16;4120916;28;20212;-68
2023/04/30 07:37:21;;;;;;;9.93;9.15;;;;;;;13.70;86.93;98988.84;4118385;28;20213;-68
2023/04/30 07:39:23;;;;;;;10.20;9.40;;;;;;;13.94;86.34;98994.88;4120137;28;20237;-68
2023/04/30 07:41:24;;;;;;;10.88;10.02;;;;;;;13.52;88.19;98989.22;4120115;28;20202;-68
2023/04/30 07:43:26;;;;;;;10.73;9.82;;;;;;;13.73;87.31;98988.34;4122450;28;20256;-67
2023/04/30 07:45:30;;;;;;;9.77;9.07;;;;;;;13.90;85.91;98993.75;4102058;28;20218;-67
2023/04/30 07:47:32;;;;;;;10.85;10.05;;;;;;;14.19;87.19;98993.25;4105123;28;20231;-68
2023/04/30 07:49:33;;;;;;;8.95;8.25;;;;;;;14.21;84.83;98988.31;4104150;28;20992;-69
2023/04/30 07:51:36;;;;;;;10.55;9.75;;;;;;;14.54;85.75;98989.94;4122968;28;20405;-67
2023/04/30 07:53:37;;;;;;;10.23;9.32;;;;;;;14.68;83.94;98996.66;4124943;28;20650;-68
2023/04/30 07:55:39;;;;;;;10.02;9.02;;;;;;;14.94;82.75;98991.06;4129938;28;20198;-67
2023/04/30 07:57:40;;;;;;;8.23;7.53;;;;;;;15.68;84.09;98997.22;4128732;28;20202;-68
2023/04/30 07:59:42;;;;;;;9.45;8.80;;;;;;;15.10;82.71;98995.56;4106600;28;21319;-68
2023/04/30 08:01:43;;;;;;;8.68;7.97;;;;;;;15.57;81.30;98992.81;4105815;28;20215;-67
2023/04/30 08:03:45;;;;;;;8.55;7.85;;;;;;;15.80;81.23;98989.53;4123158;28;20210;-68
2023/04/30 08:05:47;;;;;;;8.43;7.72;;;;;;;15.45;78.85;98990.28;4107060;28;20220;-67
2023/04/30 08:07:48;;;;;;;8.60;7.63;;;;;;;15.57;79.89;98988.09;4106614;28;20242;-68
2023/04/30 08:09:50;;;;;;;8.55;7.95;;;;;;;15.63;77.07;98991.72;4121159;28;20740;-67
2023/04/30 08:11:52;;;;;;;8.90;8.02;;;;;;;15.69;80.45;99004.44;4105519;28;20213;-68
2023/04/30 08:13:54;;;;;;;9.25;8.35;;;;;;;15.55;77.80;98995.00;4123564;28;20216;-67
2023/04/30 08:15:55;;;;;;;8.02;7.40;;;;;;;15.29;76.59;98994.00;4123605;28;20234;-68
2023/04/30 08:17:57;;;;;;;7.95;7.25;;;;;;;15.12;76.01;99004.41;4123202;28;20210;-68
2023/04/30 08:20:00;;;;;;;8.00;7.30;;;;;;;15.08;78.62;98995.00;4125122;28;20265;-68
2023/04/30 08:22:01;;;;;;;7.82;7.03;;;;;;;15.47;78.56;98995.50;4125214;28;20245;-67
2023/04/30 08:24:03;;;;;;;8.30;7.68;;;;;;;15.55;76.18;98993.06;4127102;28;20208;-68
2023/04/30 08:26:04;;;;;;;7.43;6.93;;;;;;;15.71;76.01;98997.50;4107182;28;20202;-67
2023/04/30 08:28:06;;;;;;;8.00;7.32;;;;;;;15.56;75.07;98999.41;4122293;28;20226;-68
2023/04/30 08:30:08;;;;;;;8.70;7.63;;;;;;;16.14;74.57;98985.19;4121626;28;20224;-67
2023/04/30 08:32:10;;;;;;;7.25;6.75;;;;;;;15.98;74.40;98992.66;4121460;28;20214;-68
2023/04/30 08:34:11;;;;;;;7.72;7.13;;;;;;;15.91;73.57;98996.75;4108632;28;20240;-68
2023/04/30 08:36:13;;;;;;;6.80;6.20;;;;;;;16.18;75.25;99002.88;4122455;28;20210;-67
2023/04/30 08:38:14;;;;;;;7.93;7.32;;;;;;;15.70;74.93;98995.88;4122231;28;20230;-68
2023/04/30 08:40:16;;;;;;;6.75;6.25;;;;;;;15.89;74.88;98998.97;4121927;28;20210;-67
2023/04/30 08:42:21;;;;;;;6.80;6.20;;;;;;;15.83;73.13;98998.13;4123480;28;20206;-68
2023/04/30 08:44:22;;;;;;;5.55;5.07;;;;;;;16.20;74.33;98990.47;4122057;28;20207;-68
2023/04/30 08:46:24;;;;;;;7.40;6.80;;;;;;;15.61;73.20;99000.25;4092659;28;20222;-68
2023/04/30 08:48:26;;;;;;;6.93;5.95;;;;;;;15.38;74.23;98997.97;4106761;28;20357;-68
2023/04/30 08:50:28;;;;;;;7.25;6.75;;;;;;;15.26;75.71;99005.59;4106937;28;20219;-68
2023/04/30 08:52:33;;;;;;;6.70;6.00;;;;;;;15.57;75.60;98992.81;4123654;28;20206;-68
2023/04/30 08:54:35;;;;;;;6.65;6.05;;;;;;;16.35;73.99;98992.41;4125977;28;20552;-68
2023/04/30 08:56:37;;;;;;;6.50;5.90;;;;;;;16.44;72.47;98983.31;4122652;28;20213;-68
2023/04/30 08:58:39;;;;;;;5.95;5.45;;;;;;;15.83;69.71;98989.84;4120775;28;20218;-68
2023/04/30 09:00:41;;;;;;;5.43;5.03;;;;;;;15.89;71.47;98974.13;4104380;28;20697;-68
2023/04/30 09:02:43;;;;;;;6.85;4.88;;;;;;;15.32;70.59;98982.50;4123761;28;20289;-68
2023/04/30 09:04:45;;;;;;;5.53;5.03;;;;;;;15.48;71.03;98986.13;4103624;28;21219;-68
2023/04/30 09:06:46;;;;;;;4.55;4.25;;;;;;;15.72;68.83;98996.44;4104556;28;20199;-68
2023/04/30 09:08:49;;;;;;;5.63;5.13;;;;;;;16.03;69.11;98989.88;4121884;28;20238;-67
2023/04/30 09:10:50;;;;;;;6.55;6.05;;;;;;;15.94;69.04;98997.03;4120483;28;20209;-68
2023/04/30 09:12:58;;;;;;;5.43;4.97;;;;;;;15.34;68.40;98996.00;4122822;28;20206;-68
2023/04/30 09:15:01;;;;;;;4.28;3.97;;;;;;;15.11;68.17;98997.22;4128254;28;20661;-68
2023/04/30 09:17:02;;;;;;;5.25;3.97;;;;;;;14.99;68.96;98999.38;4109308;28;20253;-68
2023/04/30 09:19:04;;;;;;;5.72;4.82;;;;;;;15.01;70.30;98994.44;4127977;28;20226;-68
2023/04/30 09:21:07;;;;;;;5.45;4.35;;;;;;;15.37;70.26;98989.97;4128412;28;20213;-68
2023/04/30 09:23:10;;;;;;;4.30;3.90;;;;;;;15.25;70.03;98987.41;4124657;28;20249;-68